MSC Maeva — H9TF — position and weather

sailwx.info

Track history (hours):
 
Tides and Currents Weather Stations Pressure Air Temp Water Temp Dewpoint Dewpoint Depression Visibility Wind Speed Wind Dir Waves Ship Positions

MSC Maeva

Last reported at 2017-Jan-03 17:29 UTC. Time now 2017-Jan-19 16:55 UTC.
Position N 36°16' E 014°51'.
Warning: this ship's position is 15 days out of date.

Type: Ship (hazmat cat A). MMSI: 371851000.

Date/timePositionNaut miles runAvg speedWind from/ knotsBaromVisibWave heightAir tempDewpointWater temp
2017-Jan-03 17:29N 36°16' E 014°51'1718.6
2017-Jan-03 16:33N 36°22' E 014°31'1918.7
2017-Jan-03 15:33N 36°27' E 014°09'1818.6
2017-Jan-03 14:33N 36°33' E 013°47'  
2016-Dec-31 21:20N 37°33' W 009°12'1418.3
2016-Dec-31 20:34N 37°44' W 009°00'1413.9
2016-Dec-31 19:32N 37°56' W 008°51'0 0.2
2016-Dec-31 18:32N 37°56' W 008°51'0 0.0
2016-Dec-31 17:32N 37°56' W 008°51'0 0.0
2016-Dec-31 16:32N 37°56' W 008°51'0 0.0
2016-Dec-31 15:32N 37°56' W 008°51'0 0.0
2016-Dec-31 14:32N 37°56' W 008°51'0 0.0
2016-Dec-31 13:32N 37°56' W 008°51'0 0.0
2016-Dec-31 12:32N 37°56' W 008°51'0 0.0
2016-Dec-31 11:29N 37°56' W 008°51'0 0.0
2016-Dec-31 10:29N 37°56' W 008°51'0 0.0
2016-Dec-31 09:32N 37°56' W 008°51'0 0.0
2016-Dec-31 08:32N 37°56' W 008°51'0 0.0
2016-Dec-31 07:32N 37°56' W 008°51'0 0.0
2016-Dec-31 06:32N 37°56' W 008°51'0 0.0
2016-Dec-31 05:32N 37°56' W 008°51'0 0.0
2016-Dec-31 04:32N 37°56' W 008°51'0 0.0
2016-Dec-31 03:32N 37°56' W 008°51'0 0.0
2016-Dec-31 02:32N 37°56' W 008°51'0 0.0
2016-Dec-31 01:32N 37°56' W 008°51'0 0.0
2016-Dec-31 00:29N 37°56' W 008°51'0 0.0
2016-Dec-30 23:32N 37°56' W 008°51'0 0.0
2016-Dec-30 22:32N 37°56' W 008°51'0 0.0
2016-Dec-30 21:29N 37°56' W 008°51'0 0.0
2016-Dec-30 20:32N 37°56' W 008°51'0 0.0
2016-Dec-30 19:32N 37°56' W 008°51'0 0.0
2016-Dec-30 18:32N 37°56' W 008°51'0 0.0
2016-Dec-30 17:32N 37°56' W 008°51'0 0.0
2016-Dec-30 16:32N 37°56' W 008°51'0 0.0
2016-Dec-30 15:32N 37°56' W 008°51'0 0.0
2016-Dec-30 14:32N 37°56' W 008°51'0 0.0
2016-Dec-30 13:32N 37°56' W 008°51'0 0.0
2016-Dec-30 12:31N 37°56' W 008°51'0 0.0
2016-Dec-30 11:31N 37°56' W 008°51'2 2.3
2016-Dec-30 10:33N 37°54' W 008°51'4 3.7
2016-Dec-30 09:33N 37°52' W 008°55'10 9.7
2016-Dec-30 08:33N 37°51' W 009°07'1 1.0
2016-Dec-30 07:33N 37°51' W 009°06'1 0.9
2016-Dec-30 06:30N 37°50' W 009°05'1 0.8
2016-Dec-30 05:33N 37°50' W 009°04'3 3.5
2016-Dec-30 04:34N 37°52' W 009°08'9 8.8
2016-Dec-30 03:33N 37°54' W 009°19'10 9.7
2016-Dec-30 02:33N 37°54' W 009°31'9 9.4
2016-Dec-30 01:33N 37°54' W 009°43'10 9.4
2016-Dec-30 00:28N 37°55' W 009°56'20 9.3
2016-Dec-29 22:23N 37°55' W 010°21'62915.0
2016-Dec-28 04:32N 38°07' W 023°38'1817.8
2016-Dec-28 03:34N 38°07' W 024°01'1817.7
2016-Dec-28 02:33N 38°08' W 024°23'1817.8
2016-Dec-28 01:33N 38°08' W 024°46'1817.7
2016-Dec-28 00:33N 38°08' W 025°08'1818.0
2016-Dec-27 23:33N 38°09' W 025°31'1817.9
2016-Dec-27 22:33N 38°09' W 025°54'1717.5
2016-Dec-27 21:33N 38°09' W 026°16'1817.6
2016-Dec-27 20:33N 38°08' W 026°39'1817.7
2016-Dec-27 19:33N 38°08' W 027°01'1717.4
2016-Dec-27 18:33N 38°07' W 027°23'1717.4
2016-Dec-27 17:34N 38°07' W 027°45'1817.9
2016-Dec-27 16:33N 38°07' W 028°08'1818.3
2016-Dec-27 15:34N 38°07' W 028°31'1818.3
2016-Dec-27 14:33N 38°06' W 028°54'1918.5
2016-Dec-27 13:33N 38°06' W 029°18'1818.4
2016-Dec-27 12:33N 38°05' W 029°41'1818.3
2016-Dec-27 11:34N 38°05' W 030°05'  
Track history (hours):
 
Tides and Currents Weather Stations Pressure Air Temp Water Temp Dewpoint Dewpoint Depression Visibility Wind Speed Wind Dir Waves Ship Positions

MSC Maeva

Last reported at 2017-Jan-03 17:29 UTC. Time now 2017-Jan-19 16:55 UTC.
Position N 36°16' E 014°51'.
Warning: this ship's position is 15 days out of date.

Type: Ship (hazmat cat A). MMSI: 371851000.

Date/timePositionNaut miles runAvg speedWind from/ knotsBaromVisibWave heightAir tempDewpointWater temp
2017-Jan-03 17:29N 36°16' E 014°51'1718.6
2017-Jan-03 16:33N 36°22' E 014°31'1918.7
2017-Jan-03 15:33N 36°27' E 014°09'1818.6
2017-Jan-03 14:33N 36°33' E 013°47'  
2016-Dec-31 21:20N 37°33' W 009°12'1418.3
2016-Dec-31 20:34N 37°44' W 009°00'1413.9
2016-Dec-31 19:32N 37°56' W 008°51'0 0.2
2016-Dec-31 18:32N 37°56' W 008°51'0 0.0
2016-Dec-31 17:32N 37°56' W 008°51'0 0.0
2016-Dec-31 16:32N 37°56' W 008°51'0 0.0
2016-Dec-31 15:32N 37°56' W 008°51'0 0.0
2016-Dec-31 14:32N 37°56' W 008°51'0 0.0
2016-Dec-31 13:32N 37°56' W 008°51'0 0.0
2016-Dec-31 12:32N 37°56' W 008°51'0 0.0
2016-Dec-31 11:29N 37°56' W 008°51'0 0.0
2016-Dec-31 10:29N 37°56' W 008°51'0 0.0
2016-Dec-31 09:32N 37°56' W 008°51'0 0.0
2016-Dec-31 08:32N 37°56' W 008°51'0 0.0
2016-Dec-31 07:32N 37°56' W 008°51'0 0.0
2016-Dec-31 06:32N 37°56' W 008°51'0 0.0
2016-Dec-31 05:32N 37°56' W 008°51'0 0.0
2016-Dec-31 04:32N 37°56' W 008°51'0 0.0
2016-Dec-31 03:32N 37°56' W 008°51'0 0.0
2016-Dec-31 02:32N 37°56' W 008°51'0 0.0
2016-Dec-31 01:32N 37°56' W 008°51'0 0.0
2016-Dec-31 00:29N 37°56' W 008°51'0 0.0
2016-Dec-30 23:32N 37°56' W 008°51'0 0.0
2016-Dec-30 22:32N 37°56' W 008°51'0 0.0
2016-Dec-30 21:29N 37°56' W 008°51'0 0.0
2016-Dec-30 20:32N 37°56' W 008°51'0 0.0
2016-Dec-30 19:32N 37°56' W 008°51'0 0.0
2016-Dec-30 18:32N 37°56' W 008°51'0 0.0
2016-Dec-30 17:32N 37°56' W 008°51'0 0.0
2016-Dec-30 16:32N 37°56' W 008°51'0 0.0
2016-Dec-30 15:32N 37°56' W 008°51'0 0.0
2016-Dec-30 14:32N 37°56' W 008°51'0 0.0
2016-Dec-30 13:32N 37°56' W 008°51'0 0.0
2016-Dec-30 12:31N 37°56' W 008°51'0 0.0
2016-Dec-30 11:31N 37°56' W 008°51'2 2.3
2016-Dec-30 10:33N 37°54' W 008°51'4 3.7
2016-Dec-30 09:33N 37°52' W 008°55'10 9.7
2016-Dec-30 08:33N 37°51' W 009°07'1 1.0
2016-Dec-30 07:33N 37°51' W 009°06'1 0.9
2016-Dec-30 06:30N 37°50' W 009°05'1 0.8
2016-Dec-30 05:33N 37°50' W 009°04'3 3.5
2016-Dec-30 04:34N 37°52' W 009°08'9 8.8
2016-Dec-30 03:33N 37°54' W 009°19'10 9.7
2016-Dec-30 02:33N 37°54' W 009°31'9 9.4
2016-Dec-30 01:33N 37°54' W 009°43'10 9.4
2016-Dec-30 00:28N 37°55' W 009°56'20 9.3
2016-Dec-29 22:23N 37°55' W 010°21'62915.0
2016-Dec-28 04:32N 38°07' W 023°38'1817.8
2016-Dec-28 03:34N 38°07' W 024°01'1817.7
2016-Dec-28 02:33N 38°08' W 024°23'1817.8
2016-Dec-28 01:33N 38°08' W 024°46'1817.7
2016-Dec-28 00:33N 38°08' W 025°08'1818.0
2016-Dec-27 23:33N 38°09' W 025°31'1817.9
2016-Dec-27 22:33N 38°09' W 025°54'1717.5
2016-Dec-27 21:33N 38°09' W 026°16'1817.6
2016-Dec-27 20:33N 38°08' W 026°39'1817.7
2016-Dec-27 19:33N 38°08' W 027°01'1717.4
2016-Dec-27 18:33N 38°07' W 027°23'1717.4
2016-Dec-27 17:34N 38°07' W 027°45'1817.9
2016-Dec-27 16:33N 38°07' W 028°08'1818.3
2016-Dec-27 15:34N 38°07' W 028°31'1818.3
2016-Dec-27 14:33N 38°06' W 028°54'1918.5
2016-Dec-27 13:33N 38°06' W 029°18'1818.4
2016-Dec-27 12:33N 38°05' W 029°41'1818.3
2016-Dec-27 11:34N 38°05' W 030°05'  

Dump ship's entire track history